Time;durP1;ratioP1;P1;durP2;ratioP2;P2;SDS_P1;SDS_P2;PMS_P1;PMS_P2;Temp;Humidity;BMP_temperature;BMP_pressure;BME280_temperature;BME280_humidity;BME280_pressure;Samples;Min_cycle;Max_cycle;Signal;HPM_P1;HPM_P2
2022/07/22 12:36:32;;;;;;;3.28;1.55;;;21.60;87.50;;;;;;5834983;24;21091;31
2022/07/22 12:39:19;;;;;;;3.40;1.55;;;21.60;87.00;;;;;;4775758;30;20089;-85
2022/07/22 12:42:23;;;;;;;2.92;1.40;;;21.60;86.90;;;;;;4787395;30;20055;-85
2022/07/22 12:45:10;;;;;;;2.80;1.40;;;21.60;86.90;;;;;;4777621;30;20103;-85
2022/07/22 12:48:00;;;;;;;2.63;1.30;;;21.60;87.20;;;;;;4757477;30;20115;-88
2022/07/22 12:50:29;;;;;;;3.20;1.30;;;21.70;88.20;;;;;;4763184;30;20523;-84
2022/07/22 12:53:04;;;;;;;2.83;1.40;;;21.70;88.80;;;;;;4770530;30;20389;-84
2022/07/22 12:56:03;;;;;;;3.75;1.40;;;21.70;89.90;;;;;;4755596;30;20122;-84
2022/07/22 12:58:48;;;;;;;3.28;1.50;;;21.60;89.60;;;;;;4770915;30;20055;-83
2022/07/22 13:01:27;;;;;;;3.38;1.35;;;21.60;88.30;;;;;;4741767;30;20046;-84
2022/07/22 13:03:58;;;;;;;3.65;1.58;;;21.70;88.70;;;;;;4754942;30;20032;-83
2022/07/22 13:06:26;;;;;;;4.18;1.50;;;21.70;88.70;;;;;;4771401;30;20089;-83
2022/07/22 13:08:54;;;;;;;2.88;1.27;;;21.80;88.20;;;;;;4770284;30;20032;-84
2022/07/22 13:11:28;;;;;;;2.15;1.50;;;21.70;88.90;;;;;;4761345;30;20040;-84
2022/07/22 13:13:57;;;;;;;3.30;1.60;;;21.70;86.80;;;;;;4771802;30;20028;-84
2022/07/22 13:16:27;;;;;;;3.75;1.38;;;21.80;85.90;;;;;;4771632;30;20073;-83
2022/07/22 13:18:52;;;;;;;2.85;1.48;;;21.80;85.30;;;;;;4756695;30;20389;-84
2022/07/22 13:21:21;;;;;;;4.82;1.40;;;21.80;84.90;;;;;;4755516;30;20055;-84
2022/07/22 13:23:49;;;;;;;2.65;1.35;;;21.80;86.50;;;;;;4771637;30;20254;-83
2022/07/22 13:26:21;;;;;;;2.17;1.27;;;21.80;88.10;;;;;;4771055;30;20162;-84
2022/07/22 13:28:53;;;;;;;1.85;1.30;;;21.90;89.40;;;;;;4770243;30;20039;-84
2022/07/22 13:31:19;;;;;;;2.70;1.27;;;21.90;89.90;;;;;;4766407;30;20044;-84
2022/07/22 13:33:49;;;;;;;3.25;1.60;;;21.90;90.10;;;;;;4767409;30;20040;-83
2022/07/22 13:36:17;;;;;;;3.03;1.52;;;22.00;89.40;;;;;;4753959;30;20032;-84
2022/07/22 13:38:47;;;;;;;1.73;1.27;;;22.00;87.30;;;;;;4749921;30;20056;-84
2022/07/22 13:41:18;;;;;;;4.13;2.50;;;22.10;87.10;;;;;;4749748;30;20046;-84
2022/07/22 13:43:48;;;;;;;3.50;1.80;;;22.20;87.10;;;;;;4753227;30;20048;-84
2022/07/22 13:46:14;;;;;;;1.90;1.23;;;22.30;87.10;;;;;;4766985;30;20036;-84
2022/07/22 13:48:40;;;;;;;3.47;1.20;;;22.30;85.90;;;;;;4767203;30;20040;-84
2022/07/22 13:51:07;;;;;;;4.00;1.30;;;22.40;85.60;;;;;;4751733;30;20032;-84
2022/07/22 13:53:33;;;;;;;2.25;1.33;;;22.40;84.90;;;;;;4764959;30;20071;-85
2022/07/22 13:56:01;;;;;;;2.60;1.60;;;22.40;85.00;;;;;;4751802;30;20131;-83
2022/07/22 13:58:30;;;;;;;3.90;1.10;;;22.40;85.40;;;;;;4767007;30;20032;-84
2022/07/22 14:00:59;;;;;;;3.55;1.55;;;22.40;86.10;;;;;;4767537;30;20403;-84
2022/07/22 14:03:28;;;;;;;3.63;1.50;;;22.40;87.30;;;;;;4759131;30;20033;-84
2022/07/22 14:05:54;;;;;;;2.25;1.15;;;22.40;86.60;;;;;;4736951;30;20028;-83
2022/07/22 14:08:20;;;;;;;1.85;1.23;;;22.40;86.30;;;;;;4737262;30;20525;-84
2022/07/22 14:10:46;;;;;;;2.85;1.20;;;22.40;86.40;;;;;;4737198;30;20040;-84
2022/07/22 14:13:12;;;;;;;1.80;1.27;;;22.50;86.70;;;;;;4739304;30;20067;-84
2022/07/22 14:15:37;;;;;;;4.28;1.52;;;22.50;88.00;;;;;;4755604;30;20028;-86
2022/07/22 14:18:06;;;;;;;1.83;1.13;;;22.40;89.10;;;;;;4771172;30;20032;-84
2022/07/22 14:20:32;;;;;;;2.42;1.25;;;22.50;89.60;;;;;;4770255;30;20033;-84
2022/07/22 14:25:49;;;;;;;2.55;1.05;;;22.50;87.40;;;;;;4767777;30;20036;-84
2022/07/22 14:28:14;;;;;;;2.97;1.50;;;22.60;88.10;;;;;;4756511;30;20033;-84
2022/07/22 14:30:50;;;;;;;1.92;1.75;;;22.60;87.70;;;;;;4757730;30;20392;-85
2022/07/22 14:33:20;;;;;;;3.05;1.40;;;22.60;86.60;;;;;;4742788;30;20128;-84
2022/07/22 14:35:47;;;;;;;2.42;1.13;;;22.60;87.10;;;;;;4740404;30;20032;-85
2022/07/22 14:38:13;;;;;;;3.00;1.80;;;22.70;86.20;;;;;;4758077;30;20064;-83
2022/07/22 14:40:41;;;;;;;3.97;1.63;;;22.70;85.10;;;;;;4773020;30;20040;-86
2022/07/22 14:43:09;;;;;;;3.60;1.63;;;22.70;85.20;;;;;;4769018;30;20040;-84
2022/07/22 14:45:35;;;;;;;1.88;1.30;;;22.60;85.20;;;;;;4777594;30;20012;-84
2022/07/22 14:48:01;;;;;;;3.20;1.40;;;22.70;83.10;;;;;;4777278;30;20070;-84
2022/07/22 14:50:35;;;;;;;4.82;1.92;;;22.70;81.90;;;;;;4791561;30;20055;-84
2022/07/22 14:53:01;;;;;;;3.58;1.27;;;22.60;82.00;;;;;;4780119;29;20036;-85
2022/07/22 14:55:27;;;;;;;2.67;1.48;;;22.60;82.60;;;;;;4754539;30;20110;-84
2022/07/22 14:57:53;;;;;;;2.17;1.38;;;22.50;83.20;;;;;;4754690;30;20127;-85
2022/07/22 15:00:27;;;;;;;1.95;1.50;;;22.50;83.30;;;;;;4754826;30;20551;-85
2022/07/22 15:03:05;;;;;;;2.97;1.50;;;22.50;83.40;;;;;;4754158;30;20032;-83
2022/07/22 15:05:39;;;;;;;2.90;1.50;;;22.50;83.10;;;;;;4768757;30;20067;-83
2022/07/22 15:08:09;;;;;;;3.88;1.80;;;22.50;82.90;;;;;;4754777;30;20389;-84
2022/07/22 15:10:50;;;;;;;2.80;1.30;;;22.50;82.50;;;;;;4769740;30;20044;-85
2022/07/22 15:13:20;;;;;;;3.38;1.70;;;22.40;83.20;;;;;;4755225;30;20282;-84
2022/07/22 15:15:52;;;;;;;3.97;1.50;;;22.40;83.10;;;;;;4768878;30;20077;-84
2022/07/22 15:18:17;;;;;;;3.92;1.70;;;22.40;84.00;;;;;;4755049;30;20036;-84
2022/07/22 15:20:43;;;;;;;2.70;1.50;;;22.40;83.30;;;;;;4753521;30;20066;-84
2022/07/22 15:23:13;;;;;;;2.70;1.60;;;22.40;82.90;;;;;;4753279;30;20089;-83
2022/07/22 15:26:07;;;;;;;3.80;1.45;;;22.40;82.80;;;;;;4763078;30;20036;-84
2022/07/22 15:28:37;;;;;;;2.33;1.50;;;22.40;82.30;;;;;;4757427;30;20043;-85
2022/07/22 17:46:27;;;;;;;;;;;;;;;;;;;;;
2022/07/22 17:53:35;;;;;;;;;;;;;;;;;;;;;
2022/07/22 17:56:57;;;;;;;;;;;;;;;;;;;;;
2022/07/22 17:59:57;;;;;;;3.17;1.60;;;21.30;84.60;;;;;;6075462;23;20271;-94
2022/07/22 18:06:53;;;;;;;;;;;;;;;;;;;;;
